sensor_id;sensor_type;location;lat;lon;timestamp;temperature;humidity
60868;DHT22;46702;48.370;10.794;2023-05-10T00:01:43;14.30;99.90
60868;DHT22;46702;48.370;10.794;2023-05-10T00:04:09;14.40;99.90
60868;DHT22;46702;48.370;10.794;2023-05-10T00:06:34;14.40;99.90
60868;DHT22;46702;48.370;10.794;2023-05-10T00:09:00;14.50;99.90
60868;DHT22;46702;48.370;10.794;2023-05-10T00:11:26;14.50;99.90
60868;DHT22;46702;48.370;10.794;2023-05-10T00:13:52;14.50;99.90
60868;DHT22;46702;48.370;10.794;2023-05-10T00:16:17;14.50;99.90
60868;DHT22;46702;48.370;10.794;2023-05-10T00:18:43;14.40;99.90
60868;DHT22;46702;48.370;10.794;2023-05-10T00:21:08;14.30;99.90
60868;DHT22;46702;48.370;10.794;2023-05-10T00:23:34;14.40;99.90
60868;DHT22;46702;48.370;10.794;2023-05-10T00:25:59;14.40;99.90
60868;DHT22;46702;48.370;10.794;2023-05-10T00:28:27;14.30;99.90
60868;DHT22;46702;48.370;10.794;2023-05-10T00:30:53;14.40;99.90
60868;DHT22;46702;48.370;10.794;2023-05-10T00:33:19;14.30;99.90
60868;DHT22;46702;48.370;10.794;2023-05-10T00:35:44;14.30;99.90
60868;DHT22;46702;48.370;10.794;2023-05-10T00:38:10;14.40;99.90
60868;DHT22;46702;48.370;10.794;2023-05-10T00:40:36;14.30;99.90
60868;DHT22;46702;48.370;10.794;2023-05-10T00:43:05;14.30;99.90
60868;DHT22;46702;48.370;10.794;2023-05-10T00:45:32;14.20;99.90
60868;DHT22;46702;48.370;10.794;2023-05-10T00:48:01;14.20;99.90
60868;DHT22;46702;48.370;10.794;2023-05-10T00:50:27;14.20;99.90
60868;DHT22;46702;48.370;10.794;2023-05-10T00:52:53;14.30;99.90
60868;DHT22;46702;48.370;10.794;2023-05-10T00:55:19;14.20;99.90
60868;DHT22;46702;48.370;10.794;2023-05-10T00:57:45;14.20;99.90
60868;DHT22;46702;48.370;10.794;2023-05-10T01:00:12;14.20;99.90
60868;DHT22;46702;48.370;10.794;2023-05-10T01:02:38;14.20;99.90
60868;DHT22;46702;48.370;10.794;2023-05-10T01:05:04;14.20;99.90
60868;DHT22;46702;48.370;10.794;2023-05-10T01:07:30;14.20;99.90
60868;DHT22;46702;48.370;10.794;2023-05-10T01:09:56;14.10;99.90
60868;DHT22;46702;48.370;10.794;2023-05-10T01:12:22;14.10;99.90
60868;DHT22;46702;48.370;10.794;2023-05-10T01:14:48;14.10;99.90
60868;DHT22;46702;48.370;10.794;2023-05-10T01:17:14;14.10;99.90
60868;DHT22;46702;48.370;10.794;2023-05-10T01:19:40;14.10;99.90
60868;DHT22;46702;48.370;10.794;2023-05-10T01:35:51;14.10;99.90
60868;DHT22;46702;48.370;10.794;2023-05-10T01:41:09;13.90;99.90
60868;DHT22;46702;48.370;10.794;2023-05-10T01:46:37;13.90;99.90
60868;DHT22;46702;48.370;10.794;2023-05-10T01:49:08;13.90;99.90
60868;DHT22;46702;48.370;10.794;2023-05-10T01:52:04;13.90;99.90
60868;DHT22;46702;48.370;10.794;2023-05-10T01:54:33;13.90;99.90
60868;DHT22;46702;48.370;10.794;2023-05-10T01:57:03;13.80;99.90
60868;DHT22;46702;48.370;10.794;2023-05-10T01:59:34;13.80;99.90
60868;DHT22;46702;48.370;10.794;2023-05-10T02:02:06;13.80;99.90
60868;DHT22;46702;48.370;10.794;2023-05-10T02:04:35;13.90;99.90
60868;DHT22;46702;48.370;10.794;2023-05-10T02:07:03;13.80;99.90
60868;DHT22;46702;48.370;10.794;2023-05-10T02:09:32;13.80;99.90
60868;DHT22;46702;48.370;10.794;2023-05-10T02:12:00;13.80;99.90
60868;DHT22;46702;48.370;10.794;2023-05-10T02:14:30;13.70;99.90
60868;DHT22;46702;48.370;10.794;2023-05-10T02:16:55;13.70;99.90
60868;DHT22;46702;48.370;10.794;2023-05-10T02:19:22;13.70;99.90
60868;DHT22;46702;48.370;10.794;2023-05-10T02:21:49;13.70;99.90
60868;DHT22;46702;48.370;10.794;2023-05-10T02:24:16;13.70;99.90
60868;DHT22;46702;48.370;10.794;2023-05-10T02:26:44;13.70;99.90
60868;DHT22;46702;48.370;10.794;2023-05-10T02:29:11;13.60;99.90
60868;DHT22;46702;48.370;10.794;2023-05-10T02:31:38;13.60;99.90
60868;DHT22;46702;48.370;10.794;2023-05-10T02:34:05;13.60;99.90
60868;DHT22;46702;48.370;10.794;2023-05-10T02:36:31;13.60;99.90
60868;DHT22;46702;48.370;10.794;2023-05-10T02:38:59;13.60;99.90
60868;DHT22;46702;48.370;10.794;2023-05-10T02:41:25;13.50;99.90
60868;DHT22;46702;48.370;10.794;2023-05-10T02:43:56;13.50;99.90
60868;DHT22;46702;48.370;10.794;2023-05-10T02:46:22;13.50;99.90
60868;DHT22;46702;48.370;10.794;2023-05-10T02:48:48;13.50;99.90
60868;DHT22;46702;48.370;10.794;2023-05-10T02:51:15;13.50;99.90
60868;DHT22;46702;48.370;10.794;2023-05-10T02:53:44;13.50;99.90
60868;DHT22;46702;48.370;10.794;2023-05-10T02:56:15;13.50;99.90
60868;DHT22;46702;48.370;10.794;2023-05-10T02:58:43;13.50;99.90
60868;DHT22;46702;48.370;10.794;2023-05-10T03:01:09;13.50;99.90
60868;DHT22;46702;48.370;10.794;2023-05-10T03:03:35;13.40;99.90
60868;DHT22;46702;48.370;10.794;2023-05-10T03:06:00;13.50;99.90
60868;DHT22;46702;48.370;10.794;2023-05-10T03:08:26;13.50;99.90
60868;DHT22;46702;48.370;10.794;2023-05-10T03:11:22;13.40;99.90
60868;DHT22;46702;48.370;10.794;2023-05-10T03:16:51;13.40;99.90
60868;DHT22;46702;48.370;10.794;2023-05-10T03:19:24;13.40;99.90
60868;DHT22;46702;48.370;10.794;2023-05-10T03:21:52;13.40;99.90
60868;DHT22;46702;48.370;10.794;2023-05-10T03:24:21;13.40;99.90
60868;DHT22;46702;48.370;10.794;2023-05-10T03:26:49;13.30;99.90
60868;DHT22;46702;48.370;10.794;2023-05-10T03:29:15;13.40;99.90
60868;DHT22;46702;48.370;10.794;2023-05-10T03:31:41;13.30;99.90
60868;DHT22;46702;48.370;10.794;2023-05-10T03:34:07;13.20;99.90
60868;DHT22;46702;48.370;10.794;2023-05-10T03:36:33;13.20;99.90
60868;DHT22;46702;48.370;10.794;2023-05-10T03:38:58;13.30;99.90
60868;DHT22;46702;48.370;10.794;2023-05-10T03:41:24;13.30;99.90
60868;DHT22;46702;48.370;10.794;2023-05-10T03:43:51;13.20;99.90
60868;DHT22;46702;48.370;10.794;2023-05-10T03:46:16;13.10;99.90
60868;DHT22;46702;48.370;10.794;2023-05-10T03:48:42;12.90;99.90
60868;DHT22;46702;48.370;10.794;2023-05-10T03:51:07;12.90;99.90
60868;DHT22;46702;48.370;10.794;2023-05-10T03:53:33;12.80;99.90
60868;DHT22;46702;48.370;10.794;2023-05-10T03:55:59;12.80;99.90
60868;DHT22;46702;48.370;10.794;2023-05-10T03:58:24;12.70;99.90
60868;DHT22;46702;48.370;10.794;2023-05-10T04:00:51;12.70;99.90
60868;DHT22;46702;48.370;10.794;2023-05-10T04:03:17;12.70;99.90
60868;DHT22;46702;48.370;10.794;2023-05-10T04:05:43;12.60;99.90
60868;DHT22;46702;48.370;10.794;2023-05-10T04:08:08;12.50;99.90
60868;DHT22;46702;48.370;10.794;2023-05-10T04:10:34;12.50;99.90
60868;DHT22;46702;48.370;10.794;2023-05-10T04:13:00;12.60;99.90
60868;DHT22;46702;48.370;10.794;2023-05-10T04:15:25;12.50;99.90
60868;DHT22;46702;48.370;10.794;2023-05-10T04:17:51;12.50;99.90
60868;DHT22;46702;48.370;10.794;2023-05-10T04:20:17;12.40;99.90
60868;DHT22;46702;48.370;10.794;2023-05-10T04:22:42;12.40;99.90
60868;DHT22;46702;48.370;10.794;2023-05-10T04:25:08;12.40;99.90
60868;DHT22;46702;48.370;10.794;2023-05-10T04:27:34;12.40;99.90
60868;DHT22;46702;48.370;10.794;2023-05-10T04:30:00;12.40;99.90
60868;DHT22;46702;48.370;10.794;2023-05-10T04:32:25;12.40;99.90
60868;DHT22;46702;48.370;10.794;2023-05-10T04:34:51;12.50;99.90
60868;DHT22;46702;48.370;10.794;2023-05-10T04:37:17;12.50;99.90
60868;DHT22;46702;48.370;10.794;2023-05-10T04:39:43;12.50;99.90
60868;DHT22;46702;48.370;10.794;2023-05-10T04:42:09;12.60;99.90
60868;DHT22;46702;48.370;10.794;2023-05-10T04:44:35;12.60;99.90
60868;DHT22;46702;48.370;10.794;2023-05-10T04:47:01;12.60;99.90
60868;DHT22;46702;48.370;10.794;2023-05-10T04:49:27;12.60;99.90
60868;DHT22;46702;48.370;10.794;2023-05-10T04:51:53;12.70;99.90
60868;DHT22;46702;48.370;10.794;2023-05-10T04:54:19;12.70;99.90
60868;DHT22;46702;48.370;10.794;2023-05-10T04:56:45;12.80;99.90
60868;DHT22;46702;48.370;10.794;2023-05-10T04:59:10;12.80;99.90
60868;DHT22;46702;48.370;10.794;2023-05-10T05:01:36;12.80;99.90
60868;DHT22;46702;48.370;10.794;2023-05-10T05:04:02;12.80;99.90
60868;DHT22;46702;48.370;10.794;2023-05-10T05:06:27;12.90;99.90
60868;DHT22;46702;48.370;10.794;2023-05-10T05:08:53;12.90;99.90
60868;DHT22;46702;48.370;10.794;2023-05-10T05:11:18;13.00;99.90
60868;DHT22;46702;48.370;10.794;2023-05-10T05:13:44;13.00;99.90
60868;DHT22;46702;48.370;10.794;2023-05-10T05:16:10;13.00;99.90
60868;DHT22;46702;48.370;10.794;2023-05-10T05:18:38;13.00;99.90
60868;DHT22;46702;48.370;10.794;2023-05-10T05:21:16;13.10;99.90
60868;DHT22;46702;48.370;10.794;2023-05-10T05:23:42;13.10;99.90
60868;DHT22;46702;48.370;10.794;2023-05-10T05:26:08;13.10;99.90
60868;DHT22;46702;48.370;10.794;2023-05-10T05:28:33;13.10;99.90
60868;DHT22;46702;48.370;10.794;2023-05-10T05:31:03;13.10;99.90
60868;DHT22;46702;48.370;10.794;2023-05-10T05:33:28;13.10;99.90
60868;DHT22;46702;48.370;10.794;2023-05-10T05:35:54;13.00;99.90
60868;DHT22;46702;48.370;10.794;2023-05-10T05:38:19;13.00;99.90
60868;DHT22;46702;48.370;10.794;2023-05-10T05:40:45;13.00;99.90
60868;DHT22;46702;48.370;10.794;2023-05-10T05:43:10;13.00;99.90
60868;DHT22;46702;48.370;10.794;2023-05-10T05:45:36;13.10;99.90
60868;DHT22;46702;48.370;10.794;2023-05-10T05:48:02;13.10;99.90
60868;DHT22;46702;48.370;10.794;2023-05-10T05:50:27;13.10;99.90
60868;DHT22;46702;48.370;10.794;2023-05-10T05:52:53;13.10;99.90
60868;DHT22;46702;48.370;10.794;2023-05-10T05:55:19;13.10;99.90
60868;DHT22;46702;48.370;10.794;2023-05-10T05:57:44;13.10;99.90
60868;DHT22;46702;48.370;10.794;2023-05-10T06:00:11;13.10;99.90
60868;DHT22;46702;48.370;10.794;2023-05-10T06:02:36;13.10;99.90
60868;DHT22;46702;48.370;10.794;2023-05-10T06:05:02;13.10;99.90
60868;DHT22;46702;48.370;10.794;2023-05-10T06:07:28;13.20;99.90
60868;DHT22;46702;48.370;10.794;2023-05-10T06:09:53;13.20;99.90
60868;DHT22;46702;48.370;10.794;2023-05-10T06:12:19;13.20;99.90
60868;DHT22;46702;48.370;10.794;2023-05-10T06:14:44;13.20;99.90
60868;DHT22;46702;48.370;10.794;2023-05-10T06:17:10;13.30;99.90
60868;DHT22;46702;48.370;10.794;2023-05-10T06:19:36;13.30;99.90
60868;DHT22;46702;48.370;10.794;2023-05-10T06:22:02;13.30;99.90
60868;DHT22;46702;48.370;10.794;2023-05-10T06:24:27;13.30;99.90
60868;DHT22;46702;48.370;10.794;2023-05-10T06:26:53;13.40;99.90
60868;DHT22;46702;48.370;10.794;2023-05-10T06:29:18;13.40;99.90
60868;DHT22;46702;48.370;10.794;2023-05-10T06:31:44;13.50;99.90
60868;DHT22;46702;48.370;10.794;2023-05-10T06:34:09;13.60;99.90
60868;DHT22;46702;48.370;10.794;2023-05-10T06:36:37;13.60;99.90
60868;DHT22;46702;48.370;10.794;2023-05-10T06:39:02;13.50;99.90
60868;DHT22;46702;48.370;10.794;2023-05-10T06:41:28;13.50;99.90
60868;DHT22;46702;48.370;10.794;2023-05-10T06:43:54;13.50;99.90
60868;DHT22;46702;48.370;10.794;2023-05-10T06:46:19;13.60;99.90
60868;DHT22;46702;48.370;10.794;2023-05-10T06:48:45;13.70;99.90
60868;DHT22;46702;48.370;10.794;2023-05-10T06:51:11;13.80;99.90
60868;DHT22;46702;48.370;10.794;2023-05-10T06:53:36;13.80;99.90
60868;DHT22;46702;48.370;10.794;2023-05-10T06:56:02;13.80;99.90
60868;DHT22;46702;48.370;10.794;2023-05-10T06:58:28;13.90;99.90
60868;DHT22;46702;48.370;10.794;2023-05-10T07:00:54;14.00;99.90
60868;DHT22;46702;48.370;10.794;2023-05-10T07:03:19;14.00;99.90
60868;DHT22;46702;48.370;10.794;2023-05-10T07:05:45;14.20;99.90
60868;DHT22;46702;48.370;10.794;2023-05-10T07:08:11;14.30;99.90
60868;DHT22;46702;48.370;10.794;2023-05-10T07:10:36;14.40;99.90
60868;DHT22;46702;48.370;10.794;2023-05-10T07:13:02;14.40;99.90
60868;DHT22;46702;48.370;10.794;2023-05-10T07:15:27;14.60;99.90
60868;DHT22;46702;48.370;10.794;2023-05-10T07:17:53;14.50;99.90
60868;DHT22;46702;48.370;10.794;2023-05-10T07:20:19;14.60;99.90
60868;DHT22;46702;48.370;10.794;2023-05-10T07:22:47;14.50;99.90
60868;DHT22;46702;48.370;10.794;2023-05-10T07:25:12;14.30;99.90
60868;DHT22;46702;48.370;10.794;2023-05-10T07:27:38;14.30;99.90
60868;DHT22;46702;48.370;10.794;2023-05-10T07:30:04;14.40;99.90
60868;DHT22;46702;48.370;10.794;2023-05-10T07:32:30;14.40;99.90
60868;DHT22;46702;48.370;10.794;2023-05-10T07:34:55;14.40;99.90
60868;DHT22;46702;48.370;10.794;2023-05-10T07:37:21;14.50;99.90
60868;DHT22;46702;48.370;10.794;2023-05-10T07:39:47;14.70;99.90
60868;DHT22;46702;48.370;10.794;2023-05-10T07:42:12;14.80;99.90
60868;DHT22;46702;48.370;10.794;2023-05-10T07:44:38;14.80;99.90
60868;DHT22;46702;48.370;10.794;2023-05-10T07:47:03;14.90;99.90
60868;DHT22;46702;48.370;10.794;2023-05-10T07:49:29;14.90;99.90
60868;DHT22;46702;48.370;10.794;2023-05-10T07:51:54;14.90;99.90
60868;DHT22;46702;48.370;10.794;2023-05-10T07:54:22;14.90;99.90
60868;DHT22;46702;48.370;10.794;2023-05-10T07:56:48;15.00;99.90
60868;DHT22;46702;48.370;10.794;2023-05-10T07:59:17;15.10;99.90
60868;DHT22;46702;48.370;10.794;2023-05-10T08:01:43;15.00;99.90
60868;DHT22;46702;48.370;10.794;2023-05-10T08:04:09;15.00;99.90
60868;DHT22;46702;48.370;10.794;2023-05-10T08:06:34;15.10;99.90
60868;DHT22;46702;48.370;10.794;2023-05-10T08:09:00;15.00;99.90
60868;DHT22;46702;48.370;10.794;2023-05-10T08:11:26;14.90;99.90
60868;DHT22;46702;48.370;10.794;2023-05-10T08:13:53;14.80;99.90
60868;DHT22;46702;48.370;10.794;2023-05-10T08:16:19;14.80;99.90
60868;DHT22;46702;48.370;10.794;2023-05-10T08:18:45;14.80;99.90
60868;DHT22;46702;48.370;10.794;2023-05-10T08:21:12;14.90;99.90
60868;DHT22;46702;48.370;10.794;2023-05-10T08:23:38;14.80;99.90
60868;DHT22;46702;48.370;10.794;2023-05-10T08:26:04;14.80;99.90
60868;DHT22;46702;48.370;10.794;2023-05-10T08:28:30;15.00;99.90
60868;DHT22;46702;48.370;10.794;2023-05-10T08:30:56;14.80;99.90
60868;DHT22;46702;48.370;10.794;2023-05-10T08:33:21;14.80;99.90
60868;DHT22;46702;48.370;10.794;2023-05-10T08:35:47;14.60;99.90
60868;DHT22;46702;48.370;10.794;2023-05-10T08:38:13;14.70;99.90
60868;DHT22;46702;48.370;10.794;2023-05-10T08:40:41;14.80;99.90
60868;DHT22;46702;48.370;10.794;2023-05-10T08:43:09;15.00;99.90
60868;DHT22;46702;48.370;10.794;2023-05-10T08:45:44;15.30;99.90
60868;DHT22;46702;48.370;10.794;2023-05-10T08:48:13;15.50;99.90
60868;DHT22;46702;48.370;10.794;2023-05-10T08:50:40;15.20;99.90
60868;DHT22;46702;48.370;10.794;2023-05-10T08:53:10;15.20;99.90
60868;DHT22;46702;48.370;10.794;2023-05-10T08:55:36;15.20;99.90
60868;DHT22;46702;48.370;10.794;2023-05-10T08:58:04;15.30;99.90
60868;DHT22;46702;48.370;10.794;2023-05-10T09:00:30;15.40;99.90
60868;DHT22;46702;48.370;10.794;2023-05-10T09:02:58;15.40;99.90
60868;DHT22;46702;48.370;10.794;2023-05-10T09:05:23;15.40;99.90
60868;DHT22;46702;48.370;10.794;2023-05-10T09:07:49;15.60;99.90
60868;DHT22;46702;48.370;10.794;2023-05-10T09:10:15;15.70;99.90
60868;DHT22;46702;48.370;10.794;2023-05-10T09:12:41;15.80;99.90
60868;DHT22;46702;48.370;10.794;2023-05-10T09:15:07;15.90;99.90
60868;DHT22;46702;48.370;10.794;2023-05-10T09:17:34;16.10;99.90
60868;DHT22;46702;48.370;10.794;2023-05-10T09:20:01;16.30;99.90
60868;DHT22;46702;48.370;10.794;2023-05-10T09:22:28;16.40;99.90
60868;DHT22;46702;48.370;10.794;2023-05-10T09:25:20;16.20;99.90
60868;DHT22;46702;48.370;10.794;2023-05-10T09:27:47;16.10;99.90
60868;DHT22;46702;48.370;10.794;2023-05-10T09:30:18;15.80;99.90
60868;DHT22;46702;48.370;10.794;2023-05-10T09:32:48;15.60;99.90
60868;DHT22;46702;48.370;10.794;2023-05-10T09:35:17;15.60;99.90
60868;DHT22;46702;48.370;10.794;2023-05-10T09:37:45;15.40;99.90
60868;DHT22;46702;48.370;10.794;2023-05-10T09:40:33;15.20;99.90
60868;DHT22;46702;48.370;10.794;2023-05-10T09:43:08;15.10;99.90
60868;DHT22;46702;48.370;10.794;2023-05-10T09:45:36;15.00;99.90
60868;DHT22;46702;48.370;10.794;2023-05-10T09:48:02;15.10;99.90
60868;DHT22;46702;48.370;10.794;2023-05-10T09:50:29;15.00;99.90
60868;DHT22;46702;48.370;10.794;2023-05-10T09:52:58;15.00;99.90
60868;DHT22;46702;48.370;10.794;2023-05-10T09:55:45;15.00;99.90
60868;DHT22;46702;48.370;10.794;2023-05-10T09:58:14;15.10;99.90
60868;DHT22;46702;48.370;10.794;2023-05-10T10:00:44;14.90;99.90
60868;DHT22;46702;48.370;10.794;2023-05-10T10:03:15;14.90;99.90
60868;DHT22;46702;48.370;10.794;2023-05-10T10:05:42;15.00;99.90
60868;DHT22;46702;48.370;10.794;2023-05-10T10:08:13;15.00;99.90
60868;DHT22;46702;48.370;10.794;2023-05-10T10:10:39;15.10;99.90
60868;DHT22;46702;48.370;10.794;2023-05-10T10:13:09;15.50;99.90
60868;DHT22;46702;48.370;10.794;2023-05-10T10:15:35;15.50;99.90
60868;DHT22;46702;48.370;10.794;2023-05-10T10:18:01;15.60;99.90
60868;DHT22;46702;48.370;10.794;2023-05-10T10:20:27;15.90;99.90
60868;DHT22;46702;48.370;10.794;2023-05-10T10:22:53;16.00;99.90
60868;DHT22;46702;48.370;10.794;2023-05-10T10:25:19;15.90;99.90
60868;DHT22;46702;48.370;10.794;2023-05-10T10:30:28;16.20;99.90
60868;DHT22;46702;48.370;10.794;2023-05-10T10:35:59;16.70;99.90
60868;DHT22;46702;48.370;10.794;2023-05-10T10:38:35;16.40;99.90
60868;DHT22;46702;48.370;10.794;2023-05-10T10:41:11;16.70;99.90
60868;DHT22;46702;48.370;10.794;2023-05-10T10:44:25;16.90;99.90
60868;DHT22;46702;48.370;10.794;2023-05-10T10:49:50;16.70;99.90
60868;DHT22;46702;48.370;10.794;2023-05-10T10:52:42;16.80;99.90
60868;DHT22;46702;48.370;10.794;2023-05-10T10:55:17;16.60;99.90
60868;DHT22;46702;48.370;10.794;2023-05-10T10:57:47;16.50;99.90
60868;DHT22;46702;48.370;10.794;2023-05-10T11:00:36;16.30;99.90
60868;DHT22;46702;48.370;10.794;2023-05-10T11:03:11;16.40;99.90
60868;DHT22;46702;48.370;10.794;2023-05-10T11:05:47;16.50;99.90
60868;DHT22;46702;48.370;10.794;2023-05-10T11:10:50;16.60;99.90
60868;DHT22;46702;48.370;10.794;2023-05-10T11:13:29;16.30;99.90
60868;DHT22;46702;48.370;10.794;2023-05-10T11:15:55;16.30;99.90
60868;DHT22;46702;48.370;10.794;2023-05-10T11:18:31;16.20;99.90
60868;DHT22;46702;48.370;10.794;2023-05-10T11:20:59;16.20;99.90
60868;DHT22;46702;48.370;10.794;2023-05-10T11:23:51;16.00;99.90
60868;DHT22;46702;48.370;10.794;2023-05-10T11:26:16;15.90;99.90
60868;DHT22;46702;48.370;10.794;2023-05-10T11:28:46;15.80;99.90
60868;DHT22;46702;48.370;10.794;2023-05-10T11:31:17;15.70;99.90
60868;DHT22;46702;48.370;10.794;2023-05-10T11:33:48;15.60;99.90
60868;DHT22;46702;48.370;10.794;2023-05-10T11:36:15;15.60;99.90
60868;DHT22;46702;48.370;10.794;2023-05-10T11:38:41;15.80;99.90
60868;DHT22;46702;48.370;10.794;2023-05-10T11:41:11;15.90;99.90
60868;DHT22;46702;48.370;10.794;2023-05-10T11:43:39;16.10;99.90
60868;DHT22;46702;48.370;10.794;2023-05-10T11:46:11;16.30;99.90
60868;DHT22;46702;48.370;10.794;2023-05-10T11:48:39;16.30;99.90
60868;DHT22;46702;48.370;10.794;2023-05-10T11:51:06;16.30;99.90
60868;DHT22;46702;48.370;10.794;2023-05-10T11:53:32;16.40;99.90
60868;DHT22;46702;48.370;10.794;2023-05-10T11:56:06;16.50;99.90
60868;DHT22;46702;48.370;10.794;2023-05-10T11:58:32;16.10;99.90
60868;DHT22;46702;48.370;10.794;2023-05-10T12:00:59;16.00;99.90
60868;DHT22;46702;48.370;10.794;2023-05-10T12:03:26;15.90;99.90
60868;DHT22;46702;48.370;10.794;2023-05-10T12:05:52;15.80;99.90
60868;DHT22;46702;48.370;10.794;2023-05-10T12:08:28;15.80;99.90
60868;DHT22;46702;48.370;10.794;2023-05-10T12:11:05;15.90;99.90
60868;DHT22;46702;48.370;10.794;2023-05-10T12:13:31;16.00;99.90
60868;DHT22;46702;48.370;10.794;2023-05-10T12:15:59;16.10;99.90
60868;DHT22;46702;48.370;10.794;2023-05-10T12:18:39;16.30;99.90
60868;DHT22;46702;48.370;10.794;2023-05-10T12:21:05;16.40;99.90
60868;DHT22;46702;48.370;10.794;2023-05-10T12:23:31;16.50;99.90
60868;DHT22;46702;48.370;10.794;2023-05-10T12:26:02;16.40;99.90
60868;DHT22;46702;48.370;10.794;2023-05-10T12:28:30;16.60;99.90
60868;DHT22;46702;48.370;10.794;2023-05-10T12:30:57;16.50;99.90
60868;DHT22;46702;48.370;10.794;2023-05-10T12:33:23;16.30;99.90
60868;DHT22;46702;48.370;10.794;2023-05-10T12:35:51;16.00;99.90
60868;DHT22;46702;48.370;10.794;2023-05-10T12:38:29;16.00;99.90
60868;DHT22;46702;48.370;10.794;2023-05-10T12:41:03;15.90;99.90
60868;DHT22;46702;48.370;10.794;2023-05-10T12:43:29;16.00;99.90
60868;DHT22;46702;48.370;10.794;2023-05-10T12:45:55;16.20;99.90
60868;DHT22;46702;48.370;10.794;2023-05-10T12:48:21;16.40;99.90
60868;DHT22;46702;48.370;10.794;2023-05-10T12:50:47;16.50;99.90
60868;DHT22;46702;48.370;10.794;2023-05-10T12:53:16;16.40;99.90
60868;DHT22;46702;48.370;10.794;2023-05-10T12:55:42;16.40;99.90
60868;DHT22;46702;48.370;10.794;2023-05-10T12:58:08;16.50;99.90
60868;DHT22;46702;48.370;10.794;2023-05-10T13:00:34;16.40;99.90
60868;DHT22;46702;48.370;10.794;2023-05-10T13:02:59;16.30;99.90
60868;DHT22;46702;48.370;10.794;2023-05-10T13:05:25;16.20;99.90
60868;DHT22;46702;48.370;10.794;2023-05-10T13:07:51;15.80;99.90
60868;DHT22;46702;48.370;10.794;2023-05-10T13:10:17;15.50;99.90
60868;DHT22;46702;48.370;10.794;2023-05-10T13:12:42;15.40;99.90
60868;DHT22;46702;48.370;10.794;2023-05-10T13:15:08;15.40;99.90
60868;DHT22;46702;48.370;10.794;2023-05-10T13:17:34;15.40;99.90
60868;DHT22;46702;48.370;10.794;2023-05-10T13:20:00;15.50;99.90
60868;DHT22;46702;48.370;10.794;2023-05-10T13:22:26;15.40;99.90
60868;DHT22;46702;48.370;10.794;2023-05-10T13:25:02;15.50;99.90
60868;DHT22;46702;48.370;10.794;2023-05-10T13:27:30;15.50;99.90
60868;DHT22;46702;48.370;10.794;2023-05-10T13:29:55;15.60;99.90
60868;DHT22;46702;48.370;10.794;2023-05-10T13:32:21;15.60;99.90
60868;DHT22;46702;48.370;10.794;2023-05-10T13:34:47;15.60;99.90
60868;DHT22;46702;48.370;10.794;2023-05-10T13:37:12;15.60;99.90
60868;DHT22;46702;48.370;10.794;2023-05-10T13:39:38;15.40;99.90
60868;DHT22;46702;48.370;10.794;2023-05-10T13:42:04;15.20;99.90
60868;DHT22;46702;48.370;10.794;2023-05-10T13:44:29;15.20;99.90
60868;DHT22;46702;48.370;10.794;2023-05-10T13:46:56;15.10;99.90
60868;DHT22;46702;48.370;10.794;2023-05-10T13:49:22;14.90;99.90
60868;DHT22;46702;48.370;10.794;2023-05-10T13:51:48;14.80;99.90
60868;DHT22;46702;48.370;10.794;2023-05-10T13:54:13;14.40;99.90
60868;DHT22;46702;48.370;10.794;2023-05-10T13:56:39;14.00;99.90
60868;DHT22;46702;48.370;10.794;2023-05-10T13:59:06;13.90;99.90
60868;DHT22;46702;48.370;10.794;2023-05-10T14:01:33;13.50;99.90
60868;DHT22;46702;48.370;10.794;2023-05-10T14:03:59;13.60;99.90
60868;DHT22;46702;48.370;10.794;2023-05-10T14:06:24;13.50;99.90
60868;DHT22;46702;48.370;10.794;2023-05-10T14:08:50;13.30;99.90
60868;DHT22;46702;48.370;10.794;2023-05-10T14:11:15;13.20;99.90
60868;DHT22;46702;48.370;10.794;2023-05-10T14:13:41;13.20;99.90
60868;DHT22;46702;48.370;10.794;2023-05-10T14:16:07;13.10;99.90
60868;DHT22;46702;48.370;10.794;2023-05-10T14:18:33;13.10;99.90
60868;DHT22;46702;48.370;10.794;2023-05-10T14:20:58;13.20;99.90
60868;DHT22;46702;48.370;10.794;2023-05-10T14:23:24;13.20;99.90
60868;DHT22;46702;48.370;10.794;2023-05-10T14:25:51;13.30;99.90
60868;DHT22;46702;48.370;10.794;2023-05-10T14:28:16;13.30;99.90
60868;DHT22;46702;48.370;10.794;2023-05-10T14:30:43;13.40;99.90
60868;DHT22;46702;48.370;10.794;2023-05-10T14:33:10;13.20;99.90
60868;DHT22;46702;48.370;10.794;2023-05-10T14:35:35;13.20;99.90
60868;DHT22;46702;48.370;10.794;2023-05-10T14:38:02;13.10;99.90
60868;DHT22;46702;48.370;10.794;2023-05-10T14:40:29;13.10;99.90
60868;DHT22;46702;48.370;10.794;2023-05-10T14:42:54;13.10;99.90
60868;DHT22;46702;48.370;10.794;2023-05-10T14:45:21;13.10;99.90
60868;DHT22;46702;48.370;10.794;2023-05-10T14:47:48;13.10;99.90
60868;DHT22;46702;48.370;10.794;2023-05-10T14:50:14;12.90;99.90
60868;DHT22;46702;48.370;10.794;2023-05-10T14:52:40;12.90;99.90
60868;DHT22;46702;48.370;10.794;2023-05-10T14:55:06;12.70;99.90
60868;DHT22;46702;48.370;10.794;2023-05-10T14:57:32;12.60;99.90
60868;DHT22;46702;48.370;10.794;2023-05-10T14:59:58;12.60;99.90
60868;DHT22;46702;48.370;10.794;2023-05-10T15:02:24;12.40;99.90
60868;DHT22;46702;48.370;10.794;2023-05-10T15:04:49;12.40;99.90
60868;DHT22;46702;48.370;10.794;2023-05-10T15:07:16;12.50;99.90
60868;DHT22;46702;48.370;10.794;2023-05-10T15:09:44;12.50;99.90
60868;DHT22;46702;48.370;10.794;2023-05-10T15:12:09;12.50;99.90
60868;DHT22;46702;48.370;10.794;2023-05-10T15:14:35;12.40;99.90
60868;DHT22;46702;48.370;10.794;2023-05-10T15:17:01;12.50;99.90
60868;DHT22;46702;48.370;10.794;2023-05-10T15:19:27;12.50;99.90
60868;DHT22;46702;48.370;10.794;2023-05-10T15:21:54;12.40;99.90
60868;DHT22;46702;48.370;10.794;2023-05-10T15:24:21;12.40;99.90
60868;DHT22;46702;48.370;10.794;2023-05-10T15:26:46;12.40;99.90
60868;DHT22;46702;48.370;10.794;2023-05-10T15:29:12;12.30;99.90
60868;DHT22;46702;48.370;10.794;2023-05-10T15:31:48;12.20;99.90
60868;DHT22;46702;48.370;10.794;2023-05-10T15:34:15;12.00;99.90
60868;DHT22;46702;48.370;10.794;2023-05-10T15:36:41;12.10;99.90
60868;DHT22;46702;48.370;10.794;2023-05-10T15:39:06;12.20;99.90
60868;DHT22;46702;48.370;10.794;2023-05-10T15:41:32;12.20;99.90
60868;DHT22;46702;48.370;10.794;2023-05-10T15:43:58;12.30;99.90
60868;DHT22;46702;48.370;10.794;2023-05-10T15:46:28;12.50;99.90
60868;DHT22;46702;48.370;10.794;2023-05-10T15:48:54;12.40;99.90
60868;DHT22;46702;48.370;10.794;2023-05-10T15:51:19;12.50;99.90